Time;durP1;ratioP1;P1;durP2;ratioP2;P2;SDS_P1;SDS_P2;PMS_P1;PMS_P2;Temp;Humidity;BMP_temperature;BMP_pressure;BME280_temperature;BME280_humidity;BME280_pressure;Samples;Min_cycle;Max_cycle;Signal;HPM_P1;HPM_P2
2022/12/17 13:11:30;;;;;;;0.70;0.70;;;;;;;3.95;54.44;100844.31;18431361;32;20365;-61
2022/12/17 13:21:34;;;;;;;3.08;2.90;;;;;;;4.39;53.70;100850.84;18435407;32;20096;-61
2022/12/17 13:31:48;;;;;;;0.70;0.70;;;;;;;4.09;52.84;100874.91;18432711;32;20120;-61
2022/12/17 13:41:53;;;;;;;2.22;2.15;;;;;;;3.97;54.24;100915.00;18489189;32;20372;-61
2022/12/17 13:52:05;;;;;;;1.40;1.40;;;;;;;4.49;54.10;100917.50;18430706;32;20101;-61
2022/12/17 14:02:25;;;;;;;0.70;0.70;;;;;;;4.22;53.03;100943.34;18481381;32;20100;-61
2022/12/17 14:12:33;;;;;;;0.60;0.60;;;;;;;4.22;53.37;100936.47;18489088;32;20084;-61
2022/12/17 14:22:38;;;;;;;1.67;1.60;;;;;;;4.36;52.79;100954.12;18454184;32;20362;-61
2022/12/17 14:32:43;;;;;;;0.90;0.90;;;;;;;4.64;52.47;100978.28;18467445;32;20104;-61
2022/12/17 14:42:47;;;;;;;3.45;3.15;;;;;;;4.12;52.86;100988.69;18493441;32;20096;-61
2022/12/17 14:52:53;;;;;;;0.52;0.52;;;;;;;4.05;52.49;101015.16;18469424;32;20141;-61
2022/12/17 15:02:59;;;;;;;0.85;0.85;;;;;;;3.96;53.30;101045.00;18428433;32;20152;-61
2022/12/17 15:13:06;;;;;;;0.65;0.65;;;;;;;3.60;53.62;101061.81;18485738;32;20112;-61
2022/12/17 15:23:15;;;;;;;0.60;0.60;;;;;;;3.64;54.07;101093.78;18488556;32;20124;-61
2022/12/17 15:33:19;;;;;;;0.73;0.73;;;;;;;3.81;53.07;101116.78;18490596;32;20131;-61
2022/12/17 15:43:22;;;;;;;1.35;1.35;;;;;;;3.39;53.90;101126.41;18493300;32;20112;-61
2022/12/17 15:53:27;;;;;;;0.95;0.95;;;;;;;3.38;53.67;101131.53;18496795;32;20114;-61
2022/12/17 16:03:30;;;;;;;0.80;0.80;;;;;;;3.23;53.64;101150.75;18489678;32;20161;-61
2022/12/17 16:16:20;;;;;;;1.17;1.17;;;;;;;2.84;54.99;101167.22;18733365;31;210314;-61
2022/12/17 16:26:24;;;;;;;1.17;1.17;;;;;;;2.84;54.99;101167.22;18658901;31;20092;-62
2022/12/17 16:36:28;;;;;;;2.85;2.75;;;;;;;2.62;55.84;101173.19;18623616;31;20948;-62
2022/12/17 16:46:33;;;;;;;0.70;0.70;;;;;;;2.39;56.28;101179.94;18613545;31;20129;-62
2022/12/17 16:56:38;;;;;;;1.20;1.20;;;;;;;2.52;55.78;101201.97;18608479;31;20104;-61
2022/12/17 17:06:44;;;;;;;2.95;2.75;;;;;;;2.78;55.46;101223.72;18612986;31;20147;-61
2022/12/17 17:16:49;;;;;;;0.75;0.75;;;;;;;2.80;55.50;101236.66;18613697;31;20480;-61
2022/12/17 17:26:53;;;;;;;0.90;0.90;;;;;;;2.77;55.36;101246.03;18566192;32;20118;-62
2022/12/17 17:36:57;;;;;;;0.80;0.80;;;;;;;2.81;55.21;101262.50;18557978;31;20124;-62
2022/12/17 17:47:00;;;;;;;1.05;1.05;;;;;;;2.71;55.30;101284.44;18563208;32;20160;-62
2022/12/17 17:57:05;;;;;;;0.90;0.90;;;;;;;2.90;55.00;101301.59;18596299;31;20526;-62
2022/12/17 18:07:08;;;;;;;0.73;0.73;;;;;;;2.75;55.32;101313.81;18607116;31;20216;-62
2022/12/17 18:17:29;;;;;;;0.70;0.70;;;;;;;2.85;55.25;101333.16;18626222;31;20095;-62
2022/12/17 18:27:33;;;;;;;1.35;1.35;;;;;;;2.94;55.39;101346.47;18622987;31;20372;-59
2022/12/17 18:37:38;;;;;;;1.83;1.73;;;;;;;2.97;55.04;101349.16;18621633;31;20734;-59
2022/12/17 18:47:43;;;;;;;0.77;0.77;;;;;;;3.10;55.00;101371.22;18571864;31;20140;-59
2022/12/17 18:57:47;;;;;;;1.35;1.35;;;;;;;2.83;55.44;101383.78;18559786;31;20099;-60
2022/12/17 19:07:51;;;;;;;10.90;9.10;;;;;;;3.04;54.64;101412.25;18582866;31;20100;-59
2022/12/17 19:17:55;;;;;;;1.27;1.27;;;;;;;2.94;54.13;101438.44;18626149;31;20458;-59
2022/12/17 19:28:00;;;;;;;0.90;0.90;;;;;;;3.05;54.13;101455.31;18625821;31;20095;-59
2022/12/17 19:38:05;;;;;;;0.65;0.65;;;;;;;2.57;55.47;101474.59;18622623;31;20096;-59
2022/12/17 19:48:08;;;;;;;0.80;0.80;;;;;;;1.54;60.14;101481.50;18624388;31;20116;-59
2022/12/17 19:58:13;;;;;;;0.80;0.80;;;;;;;1.99;59.05;101509.56;18615649;31;20095;-59
2022/12/17 20:08:16;;;;;;;1.23;1.20;;;;;;;1.85;59.08;101520.84;18618180;31;20099;-59
2022/12/17 20:18:25;;;;;;;0.80;0.80;;;;;;;2.58;55.56;101538.25;18584719;31;20480;-59
2022/12/17 20:28:29;;;;;;;0.80;0.80;;;;;;;1.68;59.03;101553.44;18579641;31;20112;-59
2022/12/17 20:38:34;;;;;;;0.80;0.80;;;;;;;2.69;56.71;101559.37;18592983;31;20095;-59
2022/12/17 20:48:39;;;;;;;6.18;5.82;;;;;;;2.26;57.57;101585.59;18552272;32;20455;-59
2022/12/17 20:58:44;;;;;;;1.70;1.60;;;;;;;2.37;57.27;101607.63;18580933;31;20518;-59
2022/12/17 21:08:56;;;;;;;1.00;1.00;;;;;;;2.68;56.14;101628.94;18612859;31;20131;-60
2022/12/17 21:19:31;;;;;;;0.70;0.70;;;;;;;1.73;58.52;101649.81;18581303;31;20088;-59
2022/12/17 21:29:40;;;;;;;1.15;1.15;;;;;;;1.00;60.81;101672.44;18606571;31;20140;-57
2022/12/17 21:39:45;;;;;;;0.90;0.90;;;;;;;1.41;60.09;101693.56;18587948;31;20100;-57
2022/12/17 21:49:48;;;;;;;0.90;0.90;;;;;;;1.86;58.97;101702.88;18574964;31;20131;-57
2022/12/17 21:59:53;;;;;;;0.80;0.80;;;;;;;1.92;58.95;101719.53;18628424;31;20480;-57
2022/12/17 22:09:56;;;;;;;1.08;1.08;;;;;;;1.75;59.67;101721.19;18625254;31;20084;-57
2022/12/17 22:20:21;;;;;;;1.12;1.12;;;;;;;1.76;59.39;101746.13;18626988;31;20088;-57
2022/12/17 22:40:48;;;;;;;2.15;2.05;;;;;;;1.56;60.00;101772.44;18627728;31;20088;-57
2022/12/17 22:51:11;;;;;;;14.10;4.35;;;;;;;1.33;60.58;101790.91;18582309;31;20103;-57
2022/12/17 23:01:35;;;;;;;0.73;0.73;;;;;;;1.35;60.14;101802.19;18627671;31;20084;-57
2022/12/17 23:11:38;;;;;;;1.55;1.45;;;;;;;1.18;60.91;101808.91;18627261;31;20165;-57
2022/12/17 23:21:43;;;;;;;1.25;1.23;;;;;;;1.21;60.67;101832.25;18576829;31;20099;-57
2022/12/17 23:31:46;;;;;;;0.80;0.80;;;;;;;0.91;62.07;101842.47;18561644;32;20096;-57
2022/12/17 23:41:53;;;;;;;2.95;2.85;;;;;;;0.77;60.96;101861.34;18561061;32;20096;-57
2022/12/17 23:51:56;;;;;;;0.90;0.90;;;;;;;0.80;61.18;101889.78;18560688;32;20103;-57
